Time;durP1;ratioP1;P1;durP2;ratioP2;P2;SDS_P1;SDS_P2;PMS_P1;PMS_P2;Temp;Humidity;BMP_temperature;BMP_pressure;BME280_temperature;BME280_humidity;BME280_pressure;Samples;Min_cycle;Max_cycle;Signal;HPM_P1;HPM_P2
2021/12/08 00:00:12;;;;;;;36.37;26.90;;;;;;;;;;6231849;28;20236;-61
2021/12/08 00:03:33;;;;;;;36.23;27.43;;;;;;;;;;6231151;28;20237;-61
2021/12/08 00:06:55;;;;;;;35.43;28.23;;;;;;;;;;6236361;28;20573;-63
2021/12/08 00:10:39;;;;;;;37.10;27.57;;;;;;;;;;6230479;28;20241;-62
2021/12/08 00:13:57;;;;;;;35.97;27.13;;;;;;;;;;6233520;28;20673;-60
2021/12/08 00:17:18;;;;;;;34.50;27.67;;;;;;;;;;6225468;28;20224;-61
2021/12/08 00:20:41;;;;;;;37.57;26.80;;;;;;;;;;6233336;28;20228;-61
2021/12/08 00:24:03;;;;;;;35.50;27.20;;;;;;;;;;6231439;28;20221;-60
2021/12/08 00:27:24;;;;;;;35.63;27.07;;;;;;;;;;6230626;28;20229;-61
2021/12/08 00:30:47;;;;;;;34.50;28.20;;;;;;;;;;6231569;28;20228;-60
2021/12/08 00:34:08;;;;;;;36.63;29.10;;;;;;;;;;6225708;28;20232;-60
2021/12/08 00:37:29;;;;;;;36.50;28.83;;;;;;;;;;6226283;28;20315;-60
2021/12/08 00:40:52;;;;;;;35.77;26.23;;;;;;;;;;6231928;28;20221;-60
2021/12/08 00:44:13;;;;;;;38.13;27.83;;;;;;;;;;6229708;28;20228;-61
2021/12/08 00:47:34;;;;;;;40.03;27.70;;;;;;;;;;6228961;28;20232;-61
2021/12/08 00:50:55;;;;;;;39.27;29.70;;;;;;;;;;6231492;28;20236;-61
2021/12/08 00:54:16;;;;;;;40.97;31.03;;;;;;;;;;6233438;28;20224;-61
2021/12/08 00:57:39;;;;;;;37.90;27.13;;;;;;;;;;6231281;28;20455;-60
2021/12/08 01:00:59;;;;;;;40.73;30.03;;;;;;;;;;6231289;28;20220;-59
2021/12/08 01:04:20;;;;;;;41.83;28.50;;;;;;;;;;6231115;28;20331;-60
2021/12/08 01:07:41;;;;;;;35.93;28.90;;;;;;;;;;6235335;28;20307;-60
2021/12/08 01:11:05;;;;;;;38.77;28.97;;;;;;;;;;6233098;28;20232;-61
2021/12/08 01:14:28;;;;;;;36.87;28.23;;;;;;;;;;6240521;28;20232;-60
2021/12/08 01:17:49;;;;;;;36.50;27.37;;;;;;;;;;6247442;28;20283;-60
2021/12/08 01:21:11;;;;;;;32.27;25.73;;;;;;;;;;6229232;28;20614;-60
2021/12/08 01:24:32;;;;;;;35.53;28.97;;;;;;;;;;6215710;28;20229;-61
2021/12/08 01:27:53;;;;;;;37.57;29.97;;;;;;;;;;6224515;28;20232;-60
2021/12/08 01:31:15;;;;;;;34.10;28.03;;;;;;;;;;6228928;28;20235;-60
2021/12/08 01:34:36;;;;;;;38.80;27.53;;;;;;;;;;6238005;28;20229;-61
2021/12/08 01:37:57;;;;;;;35.83;27.43;;;;;;;;;;6233288;28;20228;-60
2021/12/08 01:41:18;;;;;;;32.07;25.07;;;;;;;;;;6232021;28;20241;-60
2021/12/08 01:48:20;;;;;;;31.13;25.03;;;;;;;;;;6233104;28;20227;-61
2021/12/08 01:51:42;;;;;;;31.10;24.33;;;;;;;;;;6220154;28;20327;-60
2021/12/08 01:55:03;;;;;;;32.23;24.90;;;;;;;;;;6228463;28;20232;-60
2021/12/08 01:58:25;;;;;;;35.87;28.10;;;;;;;;;;6227217;28;20263;-60
2021/12/08 02:01:46;;;;;;;33.93;25.70;;;;;;;;;;6229879;28;20308;-61
2021/12/08 02:05:09;;;;;;;34.40;24.87;;;;;;;;;;6231459;28;20690;-60
2021/12/08 02:08:30;;;;;;;33.10;24.77;;;;;;;;;;6236246;28;20252;-60
2021/12/08 02:11:56;;;;;;;33.37;24.37;;;;;;;;;;6238114;28;20259;-60
2021/12/08 02:15:17;;;;;;;30.23;25.13;;;;;;;;;;6234100;28;20665;-60
2021/12/08 02:18:39;;;;;;;32.67;25.80;;;;;;;;;;6235565;28;20402;-61
2021/12/08 02:22:01;;;;;;;32.47;24.23;;;;;;;;;;6228089;28;20673;-61
2021/12/08 02:25:24;;;;;;;32.67;25.67;;;;;;;;;;6232488;28;20248;-61
2021/12/08 02:28:45;;;;;;;28.87;21.23;;;;;;;;;;6237461;28;20248;-60
2021/12/08 02:32:13;;;;;;;27.73;22.10;;;;;;;;;;6233620;28;20615;-60
2021/12/08 02:46:50;;;;;;;27.23;21.97;;;;;;;;;;6233983;28;20283;-60
2021/12/08 02:50:12;;;;;;;29.07;21.10;;;;;;;;;;6235889;28;20228;-60
2021/12/08 02:53:34;;;;;;;23.87;17.83;;;;;;;;;;6231725;28;20229;-61
2021/12/08 02:56:56;;;;;;;24.40;19.40;;;;;;;;;;6236377;28;20315;-61
2021/12/08 03:00:25;;;;;;;23.50;18.73;;;;;;;;;;6234156;28;20232;-60
2021/12/08 03:03:46;;;;;;;27.93;20.10;;;;;;;;;;6234378;28;20609;-60
2021/12/08 03:07:07;;;;;;;24.80;19.13;;;;;;;;;;6234229;28;20232;-62
2021/12/08 03:10:31;;;;;;;30.17;21.60;;;;;;;;;;6236709;28;20786;-61
2021/12/08 03:14:07;;;;;;;23.33;20.33;;;;;;;;;;6243965;28;20233;-60
2021/12/08 03:17:27;;;;;;;25.03;20.17;;;;;;;;;;6236328;28;20231;-59
2021/12/08 03:20:51;;;;;;;26.17;21.40;;;;;;;;;;6231649;28;20891;-61
2021/12/08 03:24:21;;;;;;;30.03;21.00;;;;;;;;;;6205384;28;20228;-60
2021/12/08 03:27:48;;;;;;;28.67;21.10;;;;;;;;;;6233884;28;20243;-62
2021/12/08 03:31:15;;;;;;;25.47;19.03;;;;;;;;;;6231668;28;20248;-60
2021/12/08 03:34:40;;;;;;;25.00;19.83;;;;;;;;;;6232339;28;20228;-60
2021/12/08 03:38:01;;;;;;;25.37;19.20;;;;;;;;;;6236744;28;20531;-59
2021/12/08 03:41:22;;;;;;;25.77;20.07;;;;;;;;;;6232460;28;20252;-61
2021/12/08 03:44:43;;;;;;;23.40;19.03;;;;;;;;;;6232992;28;20236;-61
2021/12/08 03:48:08;;;;;;;25.90;19.20;;;;;;;;;;6236564;28;20225;-60
2021/12/08 03:51:29;;;;;;;22.87;19.23;;;;;;;;;;6220441;28;20262;-59
2021/12/08 03:54:50;;;;;;;24.40;20.40;;;;;;;;;;6238462;28;20294;-61
2021/12/08 03:58:12;;;;;;;25.50;18.90;;;;;;;;;;6234697;28;20635;-61
2021/12/08 04:01:33;;;;;;;22.57;17.07;;;;;;;;;;6231626;28;20267;-59
2021/12/08 04:04:55;;;;;;;20.77;16.07;;;;;;;;;;6232674;28;20606;-60
2021/12/08 04:08:19;;;;;;;25.67;19.70;;;;;;;;;;6224469;28;20668;-61
2021/12/08 04:11:40;;;;;;;20.37;18.13;;;;;;;;;;6234147;28;20821;-61
2021/12/08 04:15:02;;;;;;;22.50;18.47;;;;;;;;;;6236382;28;20311;-59
2021/12/08 04:18:24;;;;;;;23.60;18.63;;;;;;;;;;6235392;28;20803;-61
2021/12/08 04:21:48;;;;;;;25.07;20.27;;;;;;;;;;6229577;28;20232;-61
2021/12/08 04:25:11;;;;;;;24.57;18.40;;;;;;;;;;6230421;28;20216;-60
2021/12/08 04:28:34;;;;;;;27.63;22.00;;;;;;;;;;6237165;28;20240;-61
2021/12/08 04:31:56;;;;;;;27.17;19.53;;;;;;;;;;6233149;28;20250;-60
2021/12/08 04:35:19;;;;;;;23.03;17.63;;;;;;;;;;6233606;28;20308;-61
2021/12/08 04:38:46;;;;;;;23.23;18.60;;;;;;;;;;6236088;28;20224;-60
2021/12/08 04:42:12;;;;;;;23.80;17.23;;;;;;;;;;6227925;28;20220;-60
2021/12/08 04:45:49;;;;;;;23.70;17.73;;;;;;;;;;6235802;28;20232;-60
2021/12/08 04:49:29;;;;;;;20.93;16.90;;;;;;;;;;6214350;28;20220;-60
2021/12/08 04:52:58;;;;;;;23.23;18.83;;;;;;;;;;6232747;28;20245;-60
2021/12/08 05:00:27;;;;;;;29.37;20.87;;;;;;;;;;6229510;28;20256;-61
2021/12/08 05:04:26;;;;;;;22.33;18.70;;;;;;;;;;6218153;28;20245;-61
2021/12/08 05:07:53;;;;;;;21.70;18.00;;;;;;;;;;6211284;28;20622;-61
2021/12/08 05:11:19;;;;;;;22.60;17.87;;;;;;;;;;6213718;28;20228;-61
2021/12/08 05:14:45;;;;;;;24.07;21.47;;;;;;;;;;6240249;28;20220;-60
2021/12/08 05:18:09;;;;;;;28.83;19.87;;;;;;;;;;6238713;28;20615;-60
2021/12/08 05:21:34;;;;;;;24.40;19.07;;;;;;;;;;6231109;28;20240;-60
2021/12/08 05:24:57;;;;;;;21.47;18.40;;;;;;;;;;6232645;28;20507;-60
2021/12/08 05:28:22;;;;;;;24.80;19.77;;;;;;;;;;6239491;28;20224;-60
2021/12/08 05:31:45;;;;;;;31.60;22.90;;;;;;;;;;6231963;28;20248;-61
2021/12/08 05:35:08;;;;;;;23.60;20.50;;;;;;;;;;6222034;28;20299;-60
2021/12/08 05:38:28;;;;;;;30.07;21.80;;;;;;;;;;6218667;28;20229;-61
2021/12/08 05:41:52;;;;;;;24.43;20.00;;;;;;;;;;6219439;28;20603;-60
2021/12/08 05:45:15;;;;;;;26.50;22.03;;;;;;;;;;6216592;28;20298;-59
2021/12/08 05:48:38;;;;;;;24.57;20.97;;;;;;;;;;6233225;28;20236;-60
2021/12/08 05:51:59;;;;;;;25.50;21.27;;;;;;;;;;6230685;28;20233;-60
2021/12/08 05:55:21;;;;;;;29.20;23.23;;;;;;;;;;6238201;28;20240;-60
2021/12/08 05:58:42;;;;;;;26.70;22.53;;;;;;;;;;6233242;28;20225;-60
2021/12/08 06:02:06;;;;;;;29.27;22.97;;;;;;;;;;6233693;28;20228;-60
2021/12/08 06:05:29;;;;;;;27.13;20.93;;;;;;;;;;6237867;28;20232;-60
2021/12/08 06:08:51;;;;;;;25.57;20.90;;;;;;;;;;6235221;28;22458;-60
2021/12/08 06:12:12;;;;;;;30.90;23.60;;;;;;;;;;6237914;28;20233;-60
2021/12/08 06:15:34;;;;;;;29.77;23.80;;;;;;;;;;6233710;28;20499;-60
2021/12/08 06:18:55;;;;;;;25.10;21.90;;;;;;;;;;6234776;28;20221;-60
2021/12/08 06:22:20;;;;;;;31.93;23.47;;;;;;;;;;6231725;28;20232;-61
2021/12/08 06:25:41;;;;;;;30.50;24.23;;;;;;;;;;6237352;28;20236;-61
2021/12/08 06:29:04;;;;;;;27.77;22.30;;;;;;;;;;6231711;28;20229;-61
2021/12/08 06:32:25;;;;;;;25.77;21.63;;;;;;;;;;6232892;28;20646;-60
2021/12/08 06:35:48;;;;;;;29.47;22.23;;;;;;;;;;6236118;28;20240;-60
2021/12/08 06:39:14;;;;;;;33.90;24.17;;;;;;;;;;6203312;28;20233;-60
2021/12/08 06:42:37;;;;;;;31.80;22.77;;;;;;;;;;6233784;28;20228;-61
2021/12/08 06:46:00;;;;;;;34.20;25.27;;;;;;;;;;6227108;28;20232;-60
2021/12/08 06:49:21;;;;;;;30.13;23.63;;;;;;;;;;6216565;28;20241;-60
2021/12/08 06:52:42;;;;;;;32.70;23.57;;;;;;;;;;6228729;28;20281;-60
2021/12/08 06:56:08;;;;;;;32.97;25.10;;;;;;;;;;6235130;28;20228;-62
2021/12/08 06:59:34;;;;;;;30.13;24.20;;;;;;;;;;6234394;28;20240;-60
2021/12/08 07:03:05;;;;;;;34.63;26.30;;;;;;;;;;6226445;28;20241;-62
2021/12/08 07:06:44;;;;;;;32.30;25.20;;;;;;;;;;6225759;28;20240;-62
2021/12/08 07:10:09;;;;;;;33.90;26.73;;;;;;;;;;6230594;28;20323;-62
2021/12/08 07:13:33;;;;;;;30.67;23.77;;;;;;;;;;6234091;28;20264;-61
2021/12/08 07:16:57;;;;;;;29.53;23.90;;;;;;;;;;6226988;28;20229;-62
2021/12/08 07:20:34;;;;;;;27.80;23.10;;;;;;;;;;6235443;28;20255;-61
2021/12/08 07:23:58;;;;;;;28.43;22.97;;;;;;;;;;6222793;28;20265;-60
2021/12/08 07:27:22;;;;;;;30.63;24.40;;;;;;;;;;6233141;28;20617;-61
2021/12/08 07:30:50;;;;;;;28.27;23.00;;;;;;;;;;6230904;28;20505;-61
2021/12/08 07:34:17;;;;;;;28.77;23.17;;;;;;;;;;6213350;28;20257;-62
2021/12/08 07:37:38;;;;;;;28.70;23.33;;;;;;;;;;6235348;28;20324;-60
2021/12/08 07:41:06;;;;;;;31.67;24.70;;;;;;;;;;6234226;28;20237;-62
2021/12/08 07:44:27;;;;;;;29.27;23.73;;;;;;;;;;6228506;28;20232;-62
2021/12/08 07:47:51;;;;;;;26.90;21.67;;;;;;;;;;6235780;28;20236;-62
2021/12/08 07:51:15;;;;;;;26.73;21.93;;;;;;;;;;6235294;28;20240;-62
2021/12/08 07:54:37;;;;;;;27.60;23.43;;;;;;;;;;6233028;28;20529;-61
2021/12/08 07:58:00;;;;;;;26.60;21.40;;;;;;;;;;6221918;28;20240;-61
2021/12/08 08:01:24;;;;;;;28.58;25.67;;;;;;;;;;6224608;28;20750;-62
2021/12/08 08:04:49;;;;;;;26.10;22.17;;;;;;;;;;6233440;28;20553;-62
2021/12/08 08:08:13;;;;;;;26.67;21.63;;;;;;;;;;6236317;28;20255;-61
2021/12/08 08:11:39;;;;;;;28.13;22.93;;;;;;;;;;6235051;28;20237;-62
2021/12/08 08:15:09;;;;;;;29.90;23.23;;;;;;;;;;6234205;28;20229;-62
2021/12/08 08:18:30;;;;;;;23.53;20.40;;;;;;;;;;6232548;28;20232;-62
2021/12/08 08:21:54;;;;;;;27.33;20.90;;;;;;;;;;6231065;28;20228;-62
2021/12/08 08:25:18;;;;;;;28.03;22.47;;;;;;;;;;6231337;28;20235;-63
2021/12/08 08:28:40;;;;;;;25.40;20.60;;;;;;;;;;6233787;28;20327;-61
2021/12/08 08:32:05;;;;;;;24.03;21.03;;;;;;;;;;6226210;28;20252;-62
2021/12/08 08:35:30;;;;;;;22.20;19.80;;;;;;;;;;6233135;28;20233;-62
2021/12/08 08:38:55;;;;;;;22.90;19.23;;;;;;;;;;6232084;28;20228;-61
2021/12/08 08:42:20;;;;;;;26.23;21.23;;;;;;;;;;6223848;28;20551;-62
2021/12/08 08:45:44;;;;;;;28.53;21.87;;;;;;;;;;6228388;28;20520;-61
2021/12/08 08:49:07;;;;;;;23.27;19.70;;;;;;;;;;6226666;28;20220;-61
2021/12/08 08:52:31;;;;;;;22.90;19.10;;;;;;;;;;6232881;28;20236;-59
2021/12/08 08:55:57;;;;;;;23.30;20.80;;;;;;;;;;6237201;28;20240;-61
2021/12/08 08:59:25;;;;;;;22.50;19.83;;;;;;;;;;6227807;28;20232;-61
2021/12/08 09:02:47;;;;;;;22.17;19.77;;;;;;;;;;6229835;28;20232;-62
2021/12/08 09:06:11;;;;;;;25.53;18.97;;;;;;;;;;6229739;28;20228;-60
2021/12/08 09:09:34;;;;;;;25.30;20.30;;;;;;;;;;6235121;28;20228;-59
2021/12/08 09:12:59;;;;;;;22.23;19.83;;;;;;;;;;6235878;28;20592;-60
2021/12/08 09:16:23;;;;;;;22.33;20.00;;;;;;;;;;6231006;28;20228;-61
2021/12/08 09:19:49;;;;;;;23.17;20.70;;;;;;;;;;6232890;28;20782;-61
2021/12/08 09:23:16;;;;;;;24.87;19.57;;;;;;;;;;6238017;28;20236;-60
2021/12/08 09:26:41;;;;;;;23.37;19.27;;;;;;;;;;6230916;28;20237;-60
2021/12/08 09:30:12;;;;;;;25.33;21.73;;;;;;;;;;6230688;28;20236;-61
2021/12/08 09:33:39;;;;;;;24.40;20.53;;;;;;;;;;6229177;28;20676;-59
2021/12/08 09:37:04;;;;;;;23.17;20.10;;;;;;;;;;6231409;28;20236;-61
2021/12/08 09:40:29;;;;;;;25.97;21.93;;;;;;;;;;6233453;28;20236;-62
2021/12/08 09:43:53;;;;;;;24.47;21.27;;;;;;;;;;6229278;28;20625;-61
2021/12/08 09:47:16;;;;;;;25.03;19.67;;;;;;;;;;6229332;28;20245;-62
2021/12/08 09:50:37;;;;;;;23.70;19.43;;;;;;;;;;6226427;28;20236;-61
2021/12/08 09:53:59;;;;;;;24.33;20.40;;;;;;;;;;6228630;28;20596;-61
2021/12/08 09:57:19;;;;;;;23.87;19.87;;;;;;;;;;6228143;28;20809;-61
2021/12/08 10:00:42;;;;;;;23.37;19.13;;;;;;;;;;6218335;28;20494;-61
2021/12/08 10:04:04;;;;;;;24.10;18.97;;;;;;;;;;6220338;28;20240;-60
2021/12/08 10:07:26;;;;;;;25.80;19.10;;;;;;;;;;6226678;28;20233;-59
2021/12/08 10:10:48;;;;;;;23.80;18.83;;;;;;;;;;6224516;28;20225;-59
2021/12/08 10:14:09;;;;;;;24.60;20.43;;;;;;;;;;6226585;28;20241;-59
2021/12/08 10:17:30;;;;;;;22.10;18.47;;;;;;;;;;6229959;28;20236;-60
2021/12/08 10:20:55;;;;;;;20.73;17.97;;;;;;;;;;6228205;28;20606;-60
2021/12/08 10:24:19;;;;;;;22.17;18.03;;;;;;;;;;6225624;28;20225;-61
2021/12/08 10:28:06;;;;;;;22.83;18.97;;;;;;;;;;6227727;28;20551;-60
2021/12/08 10:31:31;;;;;;;23.03;19.10;;;;;;;;;;6236733;28;20240;-62
2021/12/08 10:35:05;;;;;;;22.73;19.00;;;;;;;;;;6232909;28;20233;-61
2021/12/08 10:38:37;;;;;;;20.83;18.27;;;;;;;;;;6235977;28;20223;-60
2021/12/08 10:42:07;;;;;;;20.60;17.70;;;;;;;;;;6228609;28;20236;-61
2021/12/08 10:45:30;;;;;;;20.67;18.53;;;;;;;;;;6237182;28;20256;-59
2021/12/08 10:48:53;;;;;;;21.77;18.20;;;;;;;;;;6232541;28;20228;-60
2021/12/08 10:55:56;;;;;;;21.70;18.37;;;;;;;;;;6233353;28;20244;-61
2021/12/08 10:59:17;;;;;;;21.30;18.87;;;;;;;;;;6236174;28;20353;-61
2021/12/08 11:02:47;;;;;;;20.67;18.47;;;;;;;;;;6234784;28;20347;-60
2021/12/08 11:06:09;;;;;;;22.50;18.53;;;;;;;;;;6240022;28;20240;-60
2021/12/08 11:09:39;;;;;;;22.47;20.10;;;;;;;;;;6238338;28;20320;-60
2021/12/08 11:13:02;;;;;;;20.37;18.27;;;;;;;;;;6242333;28;20235;-61
2021/12/08 11:16:24;;;;;;;20.50;17.10;;;;;;;;;;6239211;28;21855;-59
2021/12/08 11:19:46;;;;;;;19.83;17.67;;;;;;;;;;6239681;28;20261;-61
2021/12/08 11:23:08;;;;;;;21.17;18.43;;;;;;;;;;6231700;28;20609;-62
2021/12/08 11:26:33;;;;;;;19.73;15.87;;;;;;;;;;6235178;28;20236;-61
2021/12/08 11:29:55;;;;;;;23.20;18.37;;;;;;;;;;6233911;28;20259;-61
2021/12/08 11:33:19;;;;;;;22.30;17.33;;;;;;;;;;6226723;28;20307;-61
2021/12/08 11:36:40;;;;;;;19.47;16.07;;;;;;;;;;6239262;28;20579;-61
2021/12/08 11:40:02;;;;;;;20.13;17.27;;;;;;;;;;6232539;28;20602;-61
2021/12/08 11:43:29;;;;;;;23.23;19.63;;;;;;;;;;6230056;28;20240;-61
2021/12/08 11:46:55;;;;;;;20.50;17.53;;;;;;;;;;6225448;28;20229;-61
2021/12/08 11:50:19;;;;;;;25.07;18.17;;;;;;;;;;6228508;28;20233;-61
2021/12/08 11:53:40;;;;;;;20.30;17.10;;;;;;;;;;6230279;28;20232;-60
2021/12/08 11:57:42;;;;;;;18.20;16.23;;;;;;;;;;6230339;28;20232;-61
2021/12/08 12:01:04;;;;;;;19.73;16.90;;;;;;;;;;6213835;28;20705;-61
2021/12/08 12:04:26;;;;;;;20.47;17.17;;;;;;;;;;6229066;28;20228;-62
2021/12/08 12:07:48;;;;;;;19.17;17.13;;;;;;;;;;6234151;28;20551;-61
2021/12/08 12:11:09;;;;;;;20.10;17.60;;;;;;;;;;6234485;28;20590;-61
2021/12/08 12:14:31;;;;;;;19.37;15.63;;;;;;;;;;6233720;28;20240;-61
2021/12/08 12:17:52;;;;;;;21.20;17.87;;;;;;;;;;6223829;28;20251;-61
2021/12/08 12:21:27;;;;;;;20.80;18.10;;;;;;;;;;6228009;28;20229;-61
2021/12/08 12:24:57;;;;;;;20.23;17.00;;;;;;;;;;6223240;28;20640;-62
2021/12/08 12:28:28;;;;;;;18.80;16.23;;;;;;;;;;6231321;28;21861;-61
2021/12/08 12:31:53;;;;;;;18.73;16.00;;;;;;;;;;6228754;28;20255;-62
2021/12/08 12:35:19;;;;;;;23.33;17.33;;;;;;;;;;6235496;28;20281;-62
2021/12/08 12:38:42;;;;;;;23.50;19.03;;;;;;;;;;6233884;28;20229;-62
2021/12/08 12:42:11;;;;;;;21.37;17.23;;;;;;;;;;6234886;28;20618;-61
2021/12/08 12:45:36;;;;;;;25.27;17.93;;;;;;;;;;6238162;28;21994;-62
2021/12/08 12:49:26;;;;;;;24.00;18.40;;;;;;;;;;6232721;28;20323;-61
2021/12/08 12:52:50;;;;;;;23.63;18.37;;;;;;;;;;6233785;28;20237;-61
2021/12/08 12:56:16;;;;;;;18.67;16.67;;;;;;;;;;6222952;28;20255;-62
2021/12/08 12:59:43;;;;;;;19.33;16.20;;;;;;;;;;6234559;28;20501;-62
2021/12/08 13:03:04;;;;;;;22.33;16.93;;;;;;;;;;6231826;28;20323;-62
2021/12/08 13:06:43;;;;;;;20.13;18.03;;;;;;;;;;6222139;28;20811;-61
2021/12/08 13:10:09;;;;;;;20.40;18.27;;;;;;;;;;6227967;28;20522;-61
2021/12/08 13:13:45;;;;;;;21.40;17.00;;;;;;;;;;6228183;28;20344;-61
2021/12/08 13:17:23;;;;;;;20.90;17.70;;;;;;;;;;6226269;28;20586;-62
2021/12/08 13:20:45;;;;;;;20.40;18.13;;;;;;;;;;6230863;28;20235;-62
2021/12/08 13:24:30;;;;;;;21.97;16.67;;;;;;;;;;6232397;28;20828;-62
2021/12/08 13:27:53;;;;;;;25.60;17.70;;;;;;;;;;6232129;28;20232;-62
2021/12/08 13:31:25;;;;;;;20.10;16.90;;;;;;;;;;6221956;28;20228;-62
2021/12/08 13:34:55;;;;;;;22.90;18.57;;;;;;;;;;6227795;28;20240;-62
2021/12/08 13:38:16;;;;;;;25.83;19.17;;;;;;;;;;6234671;28;20232;-63
2021/12/08 13:41:38;;;;;;;21.77;17.70;;;;;;;;;;6224409;28;20799;-63
2021/12/08 13:45:00;;;;;;;20.73;17.90;;;;;;;;;;6228714;28;20232;-61
2021/12/08 13:48:24;;;;;;;24.13;18.97;;;;;;;;;;6231591;28;20240;-63
2021/12/08 13:52:15;;;;;;;22.03;18.00;;;;;;;;;;6233527;28;20598;-62
2021/12/08 13:55:38;;;;;;;23.20;19.03;;;;;;;;;;6233315;28;20236;-63
2021/12/08 13:58:59;;;;;;;22.87;19.27;;;;;;;;;;6230277;28;20228;-62
2021/12/08 14:02:25;;;;;;;23.17;18.63;;;;;;;;;;6228719;28;20232;-61
2021/12/08 14:05:49;;;;;;;26.80;18.50;;;;;;;;;;6236816;28;20632;-61
2021/12/08 14:09:14;;;;;;;20.97;16.77;;;;;;;;;;6209444;28;21118;-61
2021/12/08 14:12:47;;;;;;;21.07;18.53;;;;;;;;;;6233885;28;20220;-60
2021/12/08 14:16:10;;;;;;;22.47;18.80;;;;;;;;;;6235062;28;20324;-61
2021/12/08 14:19:37;;;;;;;24.10;16.47;;;;;;;;;;6232482;28;20521;-60
2021/12/08 14:23:02;;;;;;;21.80;18.47;;;;;;;;;;6221080;28;20645;-62
2021/12/08 14:26:25;;;;;;;24.23;19.40;;;;;;;;;;6233838;28;20233;-62
2021/12/08 14:29:47;;;;;;;23.07;18.53;;;;;;;;;;6236058;28;20225;-62
2021/12/08 14:33:08;;;;;;;18.17;15.20;;;;;;;;;;6236504;28;20233;-60
2021/12/08 14:36:31;;;;;;;19.03;16.93;;;;;;;;;;6236051;28;20232;-60
2021/12/08 14:40:00;;;;;;;22.13;15.83;;;;;;;;;;6234602;28;20229;-63
2021/12/08 14:43:25;;;;;;;22.63;18.37;;;;;;;;;;6234343;28;20220;-62
2021/12/08 14:46:48;;;;;;;22.07;19.43;;;;;;;;;;6234743;28;20597;-61
2021/12/08 14:50:12;;;;;;;24.40;18.77;;;;;;;;;;6235112;28;20280;-60
2021/12/08 14:53:35;;;;;;;22.27;17.20;;;;;;;;;;6237079;28;20241;-62
2021/12/08 14:57:03;;;;;;;25.23;20.47;;;;;;;;;;6229534;28;21114;-61
2021/12/08 15:00:29;;;;;;;21.87;16.83;;;;;;;;;;6227127;28;20228;-61
2021/12/08 15:03:51;;;;;;;18.33;16.17;;;;;;;;;;6207005;28;20237;-61
2021/12/08 15:07:12;;;;;;;19.30;17.37;;;;;;;;;;6231775;28;20668;-63
2021/12/08 15:10:33;;;;;;;20.43;16.87;;;;;;;;;;6222742;28;20673;-62
2021/12/08 15:13:55;;;;;;;20.87;18.30;;;;;;;;;;6225861;28;20933;-61
2021/12/08 15:17:27;;;;;;;20.97;17.53;;;;;;;;;;6234274;28;20748;-62
2021/12/08 15:20:59;;;;;;;21.33;17.53;;;;;;;;;;6239126;28;20364;-62
2021/12/08 15:24:21;;;;;;;22.17;17.97;;;;;;;;;;6238324;28;20232;-62
2021/12/08 15:27:45;;;;;;;21.77;19.47;;;;;;;;;;6236972;28;20233;-61
2021/12/08 15:31:09;;;;;;;19.50;17.43;;;;;;;;;;6234295;28;20217;-63
2021/12/08 15:34:33;;;;;;;24.63;20.03;;;;;;;;;;6247434;28;20228;-62
2021/12/08 15:37:56;;;;;;;22.60;17.83;;;;;;;;;;6238094;28;20220;-62
2021/12/08 15:41:18;;;;;;;20.43;18.13;;;;;;;;;;6229412;28;20224;-62
2021/12/08 15:44:41;;;;;;;20.77;18.10;;;;;;;;;;6227478;28;20284;-60
2021/12/08 15:48:09;;;;;;;18.90;16.93;;;;;;;;;;6217657;28;20232;-61
2021/12/08 15:51:32;;;;;;;22.90;19.13;;;;;;;;;;6227131;28;20233;-63
2021/12/08 15:55:04;;;;;;;25.17;19.50;;;;;;;;;;6231211;28;20229;-61
2021/12/08 15:58:35;;;;;;;22.13;17.60;;;;;;;;;;6229667;28;20220;-62
2021/12/08 16:01:57;;;;;;;21.53;19.17;;;;;;;;;;6225491;28;20259;-60
2021/12/08 16:05:23;;;;;;;24.30;18.47;;;;;;;;;;6242687;28;20227;-63
2021/12/08 16:08:45;;;;;;;22.80;19.43;;;;;;;;;;6253692;28;20233;-62
2021/12/08 16:12:09;;;;;;;22.40;19.80;;;;;;;;;;6219930;28;20705;-62
2021/12/08 16:15:41;;;;;;;23.03;19.70;;;;;;;;;;6226688;28;20241;-63
2021/12/08 16:19:07;;;;;;;24.60;20.93;;;;;;;;;;6243658;28;20336;-62
2021/12/08 16:22:30;;;;;;;25.43;20.67;;;;;;;;;;6245546;28;20228;-62
2021/12/08 16:25:52;;;;;;;25.50;20.77;;;;;;;;;;6238849;28;20228;-63
2021/12/08 16:29:12;;;;;;;22.53;20.13;;;;;;;;;;6230179;28;20255;-62
2021/12/08 16:32:34;;;;;;;26.50;21.87;;;;;;;;;;6238550;28;20361;-63
2021/12/08 16:35:54;;;;;;;26.27;23.23;;;;;;;;;;6244046;28;20225;-62
2021/12/08 16:39:20;;;;;;;29.23;22.40;;;;;;;;;;6240480;28;20268;-62
2021/12/08 16:46:20;;;;;;;24.00;21.37;;;;;;;;;;6237886;28;20251;-63
2021/12/08 16:49:41;;;;;;;25.57;22.60;;;;;;;;;;6241989;28;20228;-63
2021/12/08 16:53:03;;;;;;;30.33;23.90;;;;;;;;;;6235736;28;20307;-63
2021/12/08 16:56:26;;;;;;;26.60;22.10;;;;;;;;;;6231474;28;20665;-62
2021/12/08 16:59:47;;;;;;;35.47;24.40;;;;;;;;;;6232987;28;20331;-63
2021/12/08 17:03:10;;;;;;;29.00;23.30;;;;;;;;;;6232856;28;20229;-63
2021/12/08 17:06:31;;;;;;;25.97;23.10;;;;;;;;;;6236343;28;20305;-61
2021/12/08 17:09:52;;;;;;;27.70;22.63;;;;;;;;;;6234374;28;20272;-64
2021/12/08 17:13:15;;;;;;;24.87;21.23;;;;;;;;;;6234848;28;20633;-62
2021/12/08 17:16:37;;;;;;;27.03;22.33;;;;;;;;;;6230836;28;20240;-62
2021/12/08 17:19:57;;;;;;;25.80;22.53;;;;;;;;;;6229190;28;20263;-62
2021/12/08 17:23:21;;;;;;;28.63;22.93;;;;;;;;;;6227890;28;20546;-62
2021/12/08 17:26:43;;;;;;;28.23;24.20;;;;;;;;;;6230830;28;20233;-63
2021/12/08 17:30:07;;;;;;;27.83;23.63;;;;;;;;;;6232618;28;20224;-62
2021/12/08 17:33:28;;;;;;;28.37;23.90;;;;;;;;;;6229675;28;20810;-63
2021/12/08 17:36:48;;;;;;;26.17;21.20;;;;;;;;;;6231217;28;20236;-63
2021/12/08 17:40:10;;;;;;;29.63;21.90;;;;;;;;;;6235992;28;20252;-64
2021/12/08 17:43:32;;;;;;;29.30;23.77;;;;;;;;;;6237481;28;20228;-63
2021/12/08 17:46:54;;;;;;;29.93;22.50;;;;;;;;;;6232974;28;20233;-63
2021/12/08 17:50:15;;;;;;;27.73;23.57;;;;;;;;;;6237385;28;20722;-63
2021/12/08 17:53:37;;;;;;;28.00;23.10;;;;;;;;;;6233792;28;20228;-63
2021/12/08 17:56:58;;;;;;;31.23;24.00;;;;;;;;;;6245194;28;20236;-64
2021/12/08 18:00:21;;;;;;;26.47;20.07;;;;;;;;;;6234046;28;20235;-62
2021/12/08 18:03:44;;;;;;;29.23;23.57;;;;;;;;;;6236366;28;20228;-64
2021/12/08 18:07:05;;;;;;;28.50;22.63;;;;;;;;;;6242481;28;20228;-63
2021/12/08 18:10:27;;;;;;;26.10;22.17;;;;;;;;;;6239760;28;20229;-63
2021/12/08 18:13:49;;;;;;;28.27;23.40;;;;;;;;;;6235696;28;20228;-63
2021/12/08 18:17:10;;;;;;;36.30;23.40;;;;;;;;;;6233709;28;20264;-62
2021/12/08 18:20:33;;;;;;;29.37;23.37;;;;;;;;;;6244738;28;20239;-62
2021/12/08 18:23:54;;;;;;;29.37;23.37;;;;;;;;;;6231585;28;20220;-63
2021/12/08 18:27:14;;;;;;;27.70;23.60;;;;;;;;;;6242969;28;20672;-63
2021/12/08 18:30:35;;;;;;;25.63;22.17;;;;;;;;;;6229933;28;20259;-63
2021/12/08 18:33:57;;;;;;;29.40;24.13;;;;;;;;;;6246293;28;20256;-63
2021/12/08 18:37:19;;;;;;;29.43;23.70;;;;;;;;;;6236159;28;20232;-63
2021/12/08 18:40:40;;;;;;;26.90;22.33;;;;;;;;;;6234333;28;20224;-62
2021/12/08 18:44:01;;;;;;;29.30;23.40;;;;;;;;;;6238425;28;20228;-62
2021/12/08 18:47:22;;;;;;;28.07;23.23;;;;;;;;;;6236610;28;20228;-62
2021/12/08 18:50:45;;;;;;;32.73;24.90;;;;;;;;;;6235271;28;20772;-63
2021/12/08 18:54:07;;;;;;;29.23;21.00;;;;;;;;;;6237101;28;20236;-63
2021/12/08 18:57:28;;;;;;;31.23;22.93;;;;;;;;;;6236005;28;20614;-63
2021/12/08 19:00:49;;;;;;;30.43;22.83;;;;;;;;;;6234415;28;20229;-63
2021/12/08 19:04:11;;;;;;;31.67;23.93;;;;;;;;;;6236492;28;20264;-63
2021/12/08 19:07:32;;;;;;;27.73;22.40;;;;;;;;;;6234179;28;20261;-62
2021/12/08 19:10:56;;;;;;;26.17;21.67;;;;;;;;;;6237604;28;20248;-63
2021/12/08 19:14:18;;;;;;;29.70;23.17;;;;;;;;;;6236322;28;20590;-62
2021/12/08 19:17:40;;;;;;;27.13;19.60;;;;;;;;;;6228094;28;20221;-62
2021/12/08 19:21:01;;;;;;;27.87;21.73;;;;;;;;;;6230708;28;20255;-64
2021/12/08 19:24:23;;;;;;;27.47;21.40;;;;;;;;;;6232755;28;20228;-63
2021/12/08 19:27:45;;;;;;;29.40;22.33;;;;;;;;;;6231511;28;20244;-63
2021/12/08 19:31:06;;;;;;;31.30;22.47;;;;;;;;;;6231833;28;20232;-64
2021/12/08 19:34:27;;;;;;;28.20;24.53;;;;;;;;;;6234969;28;20224;-63
2021/12/08 19:37:48;;;;;;;28.30;22.10;;;;;;;;;;6238459;28;20232;-63
2021/12/08 19:41:09;;;;;;;26.60;20.67;;;;;;;;;;6235760;28;20232;-63
2021/12/08 19:44:31;;;;;;;28.83;21.97;;;;;;;;;;6234744;28;20232;-62
2021/12/08 19:47:55;;;;;;;26.80;21.70;;;;;;;;;;6225863;28;20261;-62
2021/12/08 19:51:16;;;;;;;31.30;22.90;;;;;;;;;;6224959;28;20227;-61
2021/12/08 19:54:38;;;;;;;27.40;22.07;;;;;;;;;;6233285;28;20236;-60
2021/12/08 19:57:59;;;;;;;27.77;20.90;;;;;;;;;;6233718;28;20893;-62
2021/12/08 20:01:23;;;;;;;30.53;22.20;;;;;;;;;;6228627;28;20228;-62
2021/12/08 20:04:44;;;;;;;29.17;22.20;;;;;;;;;;6230232;28;20602;-61
2021/12/08 20:08:06;;;;;;;28.30;21.97;;;;;;;;;;6235978;28;20323;-62
2021/12/08 20:11:26;;;;;;;28.83;21.13;;;;;;;;;;6235502;28;20236;-62